Terminal Aerodrome Forecast
Issued by NWS Sterling, VA

Current Version | Previous Version | Text Only | Print | Product List | Glossary Off
Versions: 1 2 3 4 5 6 7 8 9 10 11 12 13 14 15 16 17 18 19 20

000
FTUS41 KLWX 262330
TAFMRB
TAF
KMRB 262330Z 2700/2724 11007KT 3SM -RADZ OVC008
     FM270600 14005KT 1SM -RADZ BR OVC003
     FM271200 20004KT P6SM BKN003
     FM271300 21004KT P6SM BKN008
     FM271600 23007KT P6SM BKN050=

USA.gov is the U.S. government's official web portal to all federal, state and local government web resources and services.